Weather at Summerside Airport

Public forecast

Using degrees Celsius for public forecast. Weather courtesy of forecast.io.

Closest aviation weather report (METAR) to Summerside Airport

Closest report is Charlottetown Airport, 30.9 nm (57.2 km) ESE.

2024/06/19 07:00 (retrieved 31 minutes ago)

CYYG 190700Z 21010KT 15SM FEW150 BKN260 19/16 A3017 RMK AC1CI5 SLP218 DENSITY ALT 400FT

Closest aviation forecast (TAF) to Summerside Airport

Closest forecast is Charlottetown Airport, 30.9 nm (57.2 km) ESE.

2024/06/19 06:42 (retrieved 49 minutes ago)

TAF CYYG 190540Z 1906/1918 22008KT P6SM SCT160 FM191200 22012KT P6SM SKC RMK NXT FCST BY 191200Z